createdAt,value
2022-08-11T00:00:03.071Z,57.36
2022-08-11T00:01:02.631Z,51.24
2022-08-11T00:02:03.285Z,59.94
2022-08-11T00:03:02.836Z,63.16
2022-08-11T00:04:02.621Z,60.26
2022-08-11T00:05:02.919Z,61.87
2022-08-11T00:06:02.944Z,52.21
2022-08-11T00:07:03.075Z,55.75
2022-08-11T00:08:02.918Z,58.97
2022-08-11T00:09:02.672Z,48.34
2022-08-11T00:10:02.893Z,52.21
2022-08-11T00:11:02.638Z,35.93
2022-08-11T00:12:02.738Z,42.86
2022-08-11T00:13:02.604Z,45.44
2022-08-11T00:14:02.704Z,62.52
2022-08-11T00:15:02.837Z,62.84
2022-08-11T00:16:02.967Z,63.33
2022-08-11T00:17:02.553Z,61.87
2022-08-11T00:18:02.680Z,53.98
2022-08-11T00:19:02.674Z,61.23
2022-08-11T00:20:11.809Z,48.50
2022-08-11T00:21:04.003Z,53.82
2022-08-11T00:22:04.895Z,64.29
2022-08-11T00:23:02.959Z,60.42
2022-08-11T00:24:03.640Z,55.59
2022-08-11T00:25:03.108Z,48.02
2022-08-11T00:26:02.967Z,60.91
2022-08-11T00:27:02.820Z,56.88
2022-08-11T00:28:02.914Z,57.04
2022-08-11T00:29:02.673Z,59.94
2022-08-11T00:30:02.381Z,60.42
2022-08-11T00:31:04.450Z,40.61
2022-08-11T00:32:02.679Z,51.08
2022-08-11T00:33:02.556Z,53.98
2022-08-11T00:34:02.535Z,45.12
2022-08-11T00:35:52.087Z,33.84
2022-08-11T00:36:03.664Z,49.31
2022-08-11T00:37:03.188Z,56.24
2022-08-11T00:38:02.453Z,49.15
2022-08-11T00:39:02.395Z,50.11
2022-08-11T00:40:02.804Z,55.91
2022-08-11T00:41:02.447Z,48.66
2022-08-11T00:42:02.338Z,57.69
2022-08-11T00:43:02.635Z,55.75
2022-08-11T00:44:02.822Z,61.87
2022-08-11T00:45:02.361Z,61.55
2022-08-11T00:46:02.423Z,56.88
2022-08-11T00:47:02.633Z,59.62
2022-08-11T00:48:02.451Z,60.42
2022-08-11T00:49:02.798Z,59.46
2022-08-11T00:50:02.853Z,62.52
2022-08-11T00:51:03.009Z,61.39
2022-08-11T00:52:05.755Z,58.49
2022-08-11T00:53:02.523Z,59.30
2022-08-11T00:54:02.456Z,52.21
2022-08-11T00:55:03.434Z,59.94
2022-08-11T00:56:02.326Z,58.33
2022-08-11T00:57:02.663Z,58.81
2022-08-11T00:58:03.639Z,59.14
2022-08-11T00:59:02.572Z,57.04
2022-08-11T01:00:03.635Z,56.40
2022-08-11T01:01:02.554Z,57.85
2022-08-11T01:02:02.203Z,56.56
2022-08-11T01:03:02.848Z,58.81
2022-08-11T01:04:02.595Z,44.47
2022-08-11T01:05:02.884Z,50.60
2022-08-11T01:06:03.157Z,60.59
2022-08-11T01:07:03.811Z,59.30
2022-08-11T01:08:03.630Z,56.24
2022-08-11T01:09:04.668Z,57.69
2022-08-11T01:10:07.162Z,62.36
2022-08-11T01:11:04.082Z,63.33
2022-08-11T01:12:03.346Z,63.49
2022-08-11T01:13:02.684Z,57.36
2022-08-11T01:14:05.233Z,59.94
2022-08-11T01:15:05.064Z,62.52
2022-08-11T01:16:02.758Z,50.76
2022-08-11T01:17:02.530Z,59.30
2022-08-11T01:18:03.200Z,56.72
2022-08-11T01:19:03.222Z,59.30
2022-08-11T01:20:44.809Z,56.88
2022-08-11T01:21:04.749Z,52.53
2022-08-11T01:22:02.621Z,56.56
2022-08-11T01:23:02.642Z,63.49
2022-08-11T01:24:02.974Z,54.95
2022-08-11T01:25:03.885Z,47.70
2022-08-11T01:26:02.605Z,48.34
2022-08-11T01:27:02.895Z,55.75
2022-08-11T01:28:02.613Z,62.84
2022-08-11T01:29:02.433Z,61.55
2022-08-11T01:30:02.277Z,46.73
2022-08-11T01:31:03.380Z,55.75
2022-08-11T01:32:02.568Z,65.42
2022-08-11T01:33:03.374Z,63.49
2022-08-11T01:34:02.937Z,58.33
2022-08-11T01:35:02.818Z,61.71
2022-08-11T01:36:02.169Z,63.49
2022-08-11T01:37:02.272Z,63.49
2022-08-11T01:38:02.348Z,66.87
2022-08-11T01:39:02.306Z,51.88
2022-08-11T01:40:02.108Z,54.30
2022-08-11T01:41:01.954Z,52.69
2022-08-11T01:42:02.561Z,54.30
2022-08-11T01:43:02.378Z,46.41
2022-08-11T01:44:02.750Z,65.74
2022-08-11T01:45:02.406Z,61.39
2022-08-11T01:46:02.606Z,52.21
2022-08-11T01:47:01.913Z,59.46
2022-08-11T01:48:02.211Z,55.59
2022-08-11T01:49:02.281Z,59.14
2022-08-11T01:50:07.200Z,56.88
2022-08-11T01:51:03.380Z,47.21
2022-08-11T01:52:02.316Z,55.75
2022-08-11T01:53:01.960Z,59.14
2022-08-11T01:54:02.006Z,63.65
2022-08-11T01:55:02.146Z,56.40
2022-08-11T01:56:02.161Z,53.66
2022-08-11T01:57:01.589Z,53.82
2022-08-11T01:58:01.547Z,65.58
2022-08-11T01:59:02.119Z,55.11
2022-08-11T02:00:01.705Z,35.13
2022-08-11T02:01:02.469Z,56.40
2022-08-11T02:02:01.684Z,67.84
2022-08-11T02:03:01.794Z,62.84
2022-08-11T02:04:01.888Z,58.65
2022-08-11T02:05:01.830Z,65.58
2022-08-11T02:06:13.249Z,58.17
2022-08-11T02:07:04.828Z,54.95
2022-08-11T02:08:01.997Z,58.97
2022-08-11T02:09:01.789Z,64.78
2022-08-11T02:10:01.876Z,61.23
2022-08-11T02:11:04.789Z,70.74
2022-08-11T02:12:02.807Z,63.97
2022-08-11T02:13:01.344Z,61.07
2022-08-11T02:14:01.930Z,59.30
2022-08-11T02:15:04.941Z,62.68
2022-08-11T02:16:01.858Z,63.49
2022-08-11T02:17:01.658Z,56.24
2022-08-11T02:18:01.960Z,60.91
2022-08-11T02:19:02.340Z,60.91
2022-08-11T02:20:01.869Z,54.95
2022-08-11T02:21:01.933Z,61.55
2022-08-11T02:22:01.750Z,59.14
2022-08-11T02:23:01.706Z,60.91
2022-08-11T02:24:05.239Z,60.75
2022-08-11T02:25:02.169Z,50.27
2022-08-11T02:26:01.290Z,57.04
2022-08-11T02:27:03.063Z,55.59
2022-08-11T02:28:01.347Z,57.04
2022-08-11T02:29:01.438Z,63.81
2022-08-11T02:30:01.491Z,66.23
2022-08-11T02:31:01.733Z,63.65
2022-08-11T02:45:34.177Z,57.85
2022-08-11T02:46:34.518Z,61.87
2022-08-11T02:47:33.741Z,58.81
2022-08-11T02:48:33.696Z,55.11
2022-08-11T02:49:33.637Z,58.01
2022-08-11T02:50:33.559Z,60.91
2022-08-11T02:51:33.580Z,61.55
2022-08-11T02:52:34.189Z,51.24
2022-08-11T02:53:33.805Z,60.26
2022-08-11T02:54:33.640Z,58.49
2022-08-11T02:55:50.863Z,57.04
2022-08-11T02:56:36.184Z,56.24
2022-08-11T02:57:35.401Z,59.14
2022-08-11T02:58:35.364Z,56.24
2022-08-11T02:59:34.983Z,58.17
2022-08-11T03:00:35.137Z,58.97
2022-08-11T03:01:35.332Z,62.68
2022-08-11T03:02:35.318Z,60.75
2022-08-11T03:03:35.061Z,59.62
2022-08-11T03:04:37.926Z,57.04
2022-08-11T03:05:34.753Z,62.20
2022-08-11T03:06:34.688Z,56.07
2022-08-11T03:07:35.175Z,54.30
2022-08-11T03:08:35.238Z,55.75
2022-08-11T03:09:35.170Z,61.71
2022-08-11T03:10:34.947Z,58.01
2022-08-11T03:11:34.877Z,57.20
2022-08-11T03:12:35.034Z,57.52
2022-08-11T03:13:34.862Z,62.04
2022-08-11T03:14:34.946Z,63.97
2022-08-11T03:15:35.372Z,63.33
2022-08-11T03:16:35.653Z,58.65
2022-08-11T03:17:35.061Z,63.97
2022-08-11T03:18:35.005Z,64.94
2022-08-11T03:19:34.677Z,56.56
2022-08-11T03:20:38.185Z,57.69
2022-08-11T03:22:01.636Z,61.39
2022-08-11T03:22:36.195Z,60.10
2022-08-11T03:23:35.990Z,60.91
2022-08-11T03:24:34.894Z,60.42
2022-08-11T03:25:35.157Z,58.65
2022-08-11T03:26:34.618Z,63.97
2022-08-11T03:27:34.826Z,60.75
2022-08-11T03:28:34.831Z,61.39
2022-08-11T03:29:34.904Z,68.96
2022-08-11T03:30:34.715Z,60.42
2022-08-11T03:31:35.385Z,61.39
2022-08-11T03:32:35.208Z,61.71
2022-08-11T03:33:34.705Z,60.75
2022-08-11T03:34:35.092Z,62.04
2022-08-11T03:35:34.866Z,64.13
2022-08-11T03:36:34.441Z,64.78
2022-08-11T03:37:35.682Z,60.59
2022-08-11T03:38:34.682Z,61.71
2022-08-11T03:39:35.082Z,62.68
2022-08-11T03:40:34.817Z,64.13
2022-08-11T03:42:01.788Z,65.90
2022-08-11T03:42:35.696Z,65.74
2022-08-11T03:43:34.781Z,63.49
2022-08-11T03:44:34.577Z,63.00
2022-08-11T03:45:38.857Z,66.23
2022-08-11T03:46:37.075Z,63.33
2022-08-11T03:47:34.368Z,61.71
2022-08-11T03:48:34.495Z,64.94
2022-08-11T03:49:34.656Z,62.20
2022-08-11T03:50:34.618Z,66.23
2022-08-11T03:51:44.985Z,62.68
2022-08-11T03:52:36.178Z,61.87
2022-08-11T03:53:34.737Z,63.81
2022-08-11T03:54:35.154Z,65.26
2022-08-11T03:55:34.699Z,68.16
2022-08-11T03:56:34.313Z,63.49
2022-08-11T03:57:34.697Z,66.55
2022-08-11T03:58:38.148Z,67.03
2022-08-11T03:59:36.615Z,66.06
2022-08-11T04:00:34.854Z,68.64
2022-08-11T04:01:34.503Z,65.58
2022-08-11T04:02:34.787Z,65.26
2022-08-11T04:03:34.422Z,64.94
2022-08-11T04:04:34.725Z,66.71
2022-08-11T04:05:34.437Z,62.36
2022-08-11T04:06:34.496Z,65.90
2022-08-11T04:07:34.913Z,66.39
2022-08-11T04:08:34.732Z,67.51
2022-08-11T04:09:34.521Z,66.71
2022-08-11T04:10:34.452Z,66.71
2022-08-11T04:11:34.523Z,65.26
2022-08-11T04:12:45.732Z,61.23
2022-08-11T04:13:35.893Z,59.78
2022-08-11T04:14:34.627Z,68.16
2022-08-11T04:15:34.574Z,64.13
2022-08-11T04:16:34.186Z,62.68
2022-08-11T04:17:34.353Z,62.36
2022-08-11T04:18:34.549Z,62.68
2022-08-11T04:19:34.363Z,63.65
2022-08-11T04:20:34.231Z,64.13
2022-08-11T04:21:34.181Z,63.97
2022-08-11T04:22:34.351Z,65.42
2022-08-11T04:24:36.214Z,66.87
2022-08-11T04:24:39.310Z,67.84
2022-08-11T04:25:34.383Z,63.00
2022-08-11T04:26:35.237Z,63.49
2022-08-11T04:27:37.039Z,65.10
2022-08-11T04:28:34.291Z,61.87
2022-08-11T04:29:36.492Z,63.33
2022-08-11T04:30:34.938Z,63.65
2022-08-11T04:31:50.633Z,65.26
2022-08-11T04:32:34.890Z,64.61
2022-08-11T04:33:34.420Z,67.68
2022-08-11T04:34:33.815Z,64.29
2022-08-11T04:35:33.783Z,62.68
2022-08-11T04:36:33.737Z,61.23
2022-08-11T04:37:33.922Z,64.61
2022-08-11T04:38:33.708Z,64.78
2022-08-11T04:39:33.897Z,66.87
2022-08-11T04:40:33.791Z,64.29
2022-08-11T04:41:33.683Z,64.13
2022-08-11T04:42:33.818Z,62.04
2022-08-11T04:43:33.634Z,64.78
2022-08-11T04:44:33.736Z,63.49
2022-08-11T04:45:33.806Z,64.29
2022-08-11T04:46:33.702Z,63.00
2022-08-11T04:47:33.576Z,65.42
2022-08-11T04:48:34.978Z,60.59
2022-08-11T04:49:34.104Z,62.68
2022-08-11T04:50:33.621Z,62.68
2022-08-11T04:51:33.649Z,63.97
2022-08-11T04:52:35.925Z,63.65
2022-08-11T04:53:34.219Z,62.20
2022-08-11T04:54:48.760Z,60.91
2022-08-11T04:55:33.494Z,62.68
2022-08-11T04:56:33.491Z,62.68
2022-08-11T04:57:33.462Z,65.42
2022-08-11T04:58:33.483Z,63.33
2022-08-11T04:59:33.438Z,63.33
2022-08-11T05:00:34.359Z,65.26
2022-08-11T05:01:37.155Z,67.51
2022-08-11T05:02:34.418Z,63.65
2022-08-11T05:03:33.387Z,62.84
2022-08-11T05:04:33.383Z,64.45
2022-08-11T05:05:33.357Z,65.74
2022-08-11T05:06:33.364Z,63.33
2022-08-11T05:07:33.453Z,64.45
2022-08-11T05:08:33.326Z,64.78
2022-08-11T05:09:33.337Z,64.61
2022-08-11T05:10:33.323Z,65.58
2022-08-11T05:11:34.305Z,63.97
2022-08-11T05:12:33.381Z,62.84
2022-08-11T05:13:33.281Z,63.33
2022-08-11T05:14:33.410Z,64.29
2022-08-11T05:15:42.669Z,64.13
2022-08-11T05:16:33.237Z,62.84
2022-08-11T05:17:33.225Z,64.61
2022-08-11T05:18:33.233Z,64.13
2022-08-11T05:19:33.226Z,62.52
2022-08-11T05:20:33.205Z,61.71
2022-08-11T05:21:44.306Z,64.29
2022-08-11T05:22:34.193Z,62.20
2022-08-11T05:23:33.174Z,62.20
2022-08-11T05:24:33.222Z,63.49
2022-08-11T05:26:42.545Z,64.78
2022-08-11T05:26:47.612Z,60.91
2022-08-11T05:27:34.231Z,61.71
2022-08-11T05:28:33.138Z,60.59
2022-08-11T05:29:33.162Z,62.52
2022-08-11T05:30:34.452Z,62.52
2022-08-11T05:31:33.086Z,61.87
2022-08-11T05:32:33.129Z,62.20
2022-08-11T05:33:33.097Z,61.23
2022-08-11T05:34:33.072Z,61.71
2022-08-11T05:36:00.061Z,65.26
2022-08-11T05:36:34.038Z,63.00
2022-08-11T05:37:33.130Z,63.65
2022-08-11T05:38:33.052Z,63.16
2022-08-11T05:39:33.593Z,61.39
2022-08-11T05:40:33.028Z,62.52
2022-08-11T05:41:32.976Z,61.55
2022-08-11T05:42:32.982Z,61.87
2022-08-11T05:43:33.152Z,61.39
2022-08-11T05:44:33.070Z,60.91
2022-08-11T05:45:57.302Z,62.04
2022-08-11T05:46:34.088Z,62.04
2022-08-11T05:47:33.079Z,63.97
2022-08-11T05:48:33.031Z,61.55
2022-08-11T05:49:33.206Z,63.16
2022-08-11T05:50:33.386Z,60.26
2022-08-11T05:51:33.225Z,62.04
2022-08-11T05:52:33.092Z,60.75
2022-08-11T05:53:42.825Z,61.23
2022-08-11T05:54:34.424Z,58.33
2022-08-11T05:55:33.202Z,60.75
2022-08-11T05:56:33.199Z,61.23
2022-08-11T05:57:48.910Z,61.23
2022-08-11T05:58:36.974Z,61.07
2022-08-11T05:59:33.975Z,60.42
2022-08-11T06:00:32.907Z,62.84
2022-08-11T06:01:32.985Z,61.23
2022-08-11T06:02:32.993Z,61.39
2022-08-11T06:03:32.933Z,62.20
2022-08-11T06:04:32.890Z,58.33
2022-08-11T06:05:32.843Z,62.36
2022-08-11T06:06:33.946Z,60.26
2022-08-11T06:07:48.996Z,59.94
2022-08-11T06:08:33.946Z,64.29
2022-08-11T06:09:33.097Z,64.13
2022-08-11T06:10:32.866Z,58.01
2022-08-11T06:11:43.705Z,60.42
2022-08-11T06:12:33.848Z,58.81
2022-08-11T06:13:32.825Z,61.07
2022-08-11T06:14:33.082Z,60.26
2022-08-11T06:15:33.036Z,61.71
2022-08-11T06:16:32.875Z,57.85
2022-08-11T06:17:38.803Z,59.94
2022-08-11T06:18:33.887Z,63.49
2022-08-11T06:19:33.034Z,60.75
2022-08-11T06:20:33.459Z,58.81
2022-08-11T06:21:33.618Z,60.26
2022-08-11T06:22:33.027Z,59.94
2022-08-11T06:23:32.787Z,61.07
2022-08-11T06:24:32.921Z,62.20
2022-08-11T06:25:32.681Z,60.75
2022-08-11T06:26:40.863Z,58.97
2022-08-11T06:27:33.719Z,61.55
2022-08-11T06:28:33.413Z,60.42
2022-08-11T06:29:37.644Z,58.33
2022-08-11T06:30:33.574Z,60.75
2022-08-11T06:31:32.888Z,61.39
2022-08-11T06:32:32.754Z,60.26
2022-08-11T06:33:32.635Z,58.17
2022-08-11T06:34:32.879Z,59.78
2022-08-11T06:35:32.890Z,63.33
2022-08-11T06:36:32.879Z,56.88
2022-08-11T06:37:36.388Z,59.46
2022-08-11T06:38:33.725Z,62.52
2022-08-11T06:39:33.108Z,62.04
2022-08-11T06:40:32.609Z,60.26
2022-08-11T06:41:32.441Z,59.94
2022-08-11T06:42:32.438Z,59.46
2022-08-11T06:43:32.414Z,60.42
2022-08-11T06:44:32.563Z,60.91
2022-08-11T06:45:32.349Z,59.14
2022-08-11T06:46:32.482Z,60.75
2022-08-11T06:47:32.428Z,60.91
2022-08-11T06:48:32.791Z,60.26
2022-08-11T06:49:32.736Z,58.81
2022-08-11T06:50:32.369Z,60.59
2022-08-11T06:51:32.456Z,60.42
2022-08-11T06:52:35.956Z,58.81
2022-08-11T06:53:32.480Z,57.04
2022-08-11T06:54:32.441Z,57.52
2022-08-11T06:55:55.493Z,55.11
2022-08-11T06:56:34.087Z,56.88
2022-08-11T06:57:32.687Z,60.26
2022-08-11T06:58:32.612Z,58.17
2022-08-11T06:59:32.355Z,58.97
2022-08-11T07:00:33.090Z,58.17
2022-08-11T07:01:32.648Z,60.91
2022-08-11T07:02:32.299Z,58.17
2022-08-11T07:03:32.223Z,60.42
2022-08-11T07:04:32.284Z,57.85
2022-08-11T07:05:32.256Z,59.14
2022-08-11T07:06:44.366Z,56.24
2022-08-11T07:07:33.148Z,60.91
2022-08-11T07:08:34.798Z,56.72
2022-08-11T07:09:32.302Z,58.01
2022-08-11T07:10:32.233Z,59.46
2022-08-11T07:11:32.080Z,58.65
2022-08-11T07:12:32.084Z,57.20
2022-08-11T07:13:44.125Z,56.88
2022-08-11T07:14:38.175Z,59.30
2022-08-11T07:16:11.789Z,59.46
2022-08-11T07:16:33.297Z,55.75
2022-08-11T07:17:32.242Z,57.85
2022-08-11T07:18:32.650Z,58.81
2022-08-11T07:19:32.153Z,59.78
2022-08-11T07:20:32.234Z,60.26
2022-08-11T07:22:01.723Z,58.01
2022-08-11T07:22:33.051Z,58.33
2022-08-11T07:23:32.708Z,60.42
2022-08-11T07:24:58.557Z,58.33
2022-08-11T07:25:33.106Z,58.81
2022-08-11T07:26:32.179Z,55.27
2022-08-11T07:27:35.751Z,57.36
2022-08-11T07:28:41.547Z,56.56
2022-08-11T07:29:33.207Z,55.59
2022-08-11T07:30:32.034Z,57.36
2022-08-11T07:31:32.000Z,56.40
2022-08-11T07:32:32.625Z,57.20
2022-08-11T07:34:08.200Z,57.85
2022-08-11T07:34:34.004Z,58.81
2022-08-11T07:35:32.252Z,54.46
2022-08-11T07:36:31.949Z,57.20
2022-08-11T07:37:31.991Z,55.43
2022-08-11T07:38:32.222Z,58.97
2022-08-11T07:39:31.932Z,59.30
2022-08-11T07:40:31.863Z,57.36
2022-08-11T07:41:31.837Z,58.01
2022-08-11T07:42:32.912Z,59.46
2022-08-11T07:43:31.850Z,70.90
2022-08-11T07:44:35.065Z,58.33
2022-08-11T07:45:33.442Z,56.56
2022-08-11T07:46:31.759Z,59.46
2022-08-11T07:47:31.925Z,58.65
2022-08-11T07:48:32.825Z,58.81
2022-08-11T07:49:32.305Z,56.24
2022-08-11T07:50:31.749Z,57.69
2022-08-11T07:51:31.865Z,55.43
2022-08-11T07:52:33.114Z,55.43
2022-08-11T07:53:32.241Z,53.33
2022-08-11T07:54:33.499Z,55.11
2022-08-11T07:55:51.212Z,55.75
2022-08-11T07:56:54.437Z,57.69
2022-08-11T07:58:02.221Z,55.43
2022-08-11T07:58:39.507Z,58.65
2022-08-11T08:00:03.316Z,54.79
2022-08-11T08:00:32.637Z,57.04
2022-08-11T08:01:31.721Z,58.01
2022-08-11T08:02:31.640Z,61.71
2022-08-11T08:03:31.580Z,55.27
2022-08-11T08:04:31.659Z,52.69
2022-08-11T08:05:31.555Z,53.33
2022-08-11T08:06:36.001Z,55.11
2022-08-11T08:07:32.018Z,57.36
2022-08-11T08:08:31.785Z,56.24
2022-08-11T08:09:31.575Z,86.21
2022-08-11T08:10:31.632Z,58.81
2022-08-11T08:11:31.945Z,54.62
2022-08-11T08:12:31.758Z,55.27
2022-08-11T08:13:31.498Z,55.11
2022-08-11T08:14:31.641Z,52.69
2022-08-11T08:15:31.637Z,55.27
2022-08-11T08:16:31.606Z,56.88
2022-08-11T08:17:31.705Z,57.04
2022-08-11T08:18:31.965Z,58.17
2022-08-11T08:19:32.365Z,57.04
2022-08-11T08:20:31.461Z,53.82
2022-08-11T08:21:31.784Z,55.27
2022-08-11T08:22:48.709Z,55.75
2022-08-11T08:23:32.424Z,59.30
2022-08-11T08:24:31.432Z,56.88
2022-08-11T08:25:31.376Z,54.14
2022-08-11T08:26:31.488Z,58.17
2022-08-11T08:27:32.646Z,56.88
2022-08-11T08:28:32.651Z,54.95
2022-08-11T08:29:32.905Z,53.82
2022-08-11T08:30:31.310Z,56.88
2022-08-11T08:31:31.380Z,55.11
2022-08-11T08:32:31.610Z,55.11
2022-08-11T08:33:31.375Z,55.59
2022-08-11T08:34:33.573Z,53.01
2022-08-11T08:35:33.008Z,50.43
2022-08-11T08:36:32.363Z,56.40
2022-08-11T08:37:46.046Z,55.11
2022-08-11T08:38:32.267Z,57.85
2022-08-11T08:39:31.317Z,56.88
2022-08-11T08:40:31.340Z,54.79
2022-08-11T08:41:31.246Z,55.59
2022-08-11T08:42:31.400Z,54.95
2022-08-11T08:43:32.549Z,54.79
2022-08-11T08:44:38.780Z,54.30
2022-08-11T08:45:33.188Z,55.43
2022-08-11T08:46:31.197Z,54.30
2022-08-11T08:47:42.291Z,57.52
2022-08-11T08:48:32.283Z,52.69
2022-08-11T08:49:31.251Z,55.11
2022-08-11T08:50:31.233Z,52.85
2022-08-11T08:52:02.528Z,53.01
2022-08-11T08:52:35.905Z,55.91
2022-08-11T08:53:32.767Z,55.59
2022-08-11T08:54:31.133Z,53.82
2022-08-11T08:55:31.126Z,56.40
2022-08-11T08:56:31.115Z,58.65
2022-08-11T08:57:31.069Z,56.88
2022-08-11T08:58:32.041Z,53.82
2022-08-11T08:59:38.156Z,54.30
2022-08-11T09:00:32.037Z,55.27
2022-08-11T09:01:31.059Z,52.85
2022-08-11T09:02:34.584Z,55.59
2022-08-11T09:04:07.019Z,56.56
2022-08-11T09:04:33.048Z,53.82
2022-08-11T09:05:31.756Z,56.40
2022-08-11T09:06:30.957Z,56.07
2022-08-11T09:07:39.094Z,53.50
2022-08-11T09:08:31.625Z,57.52
2022-08-11T09:09:31.457Z,57.04
2022-08-11T09:10:31.830Z,59.14
2022-08-11T09:11:30.937Z,57.36
2022-08-11T09:12:38.324Z,51.72
2022-08-11T09:25:33.432Z,53.33
2022-08-11T09:26:33.412Z,53.82
2022-08-11T09:27:33.234Z,50.92
2022-08-11T09:28:33.259Z,54.95
2022-08-11T09:29:33.219Z,54.30
2022-08-11T09:30:33.318Z,53.33
2022-08-11T09:31:38.731Z,56.56
2022-08-11T09:32:35.192Z,53.98
2022-08-11T09:33:33.229Z,56.24
2022-08-11T09:34:33.276Z,55.59
2022-08-11T09:35:33.146Z,52.69
2022-08-11T09:36:33.121Z,55.43
2022-08-11T09:37:55.305Z,54.46
2022-08-11T09:38:34.148Z,54.30
2022-08-11T09:39:33.198Z,52.21
2022-08-11T09:40:33.080Z,53.98
2022-08-11T09:42:01.099Z,50.92
2022-08-11T09:42:34.079Z,53.33
2022-08-11T09:43:33.567Z,56.24
2022-08-11T09:44:33.144Z,55.59
2022-08-11T09:45:34.650Z,55.11
2022-08-11T09:46:34.094Z,53.01
2022-08-11T09:47:33.023Z,52.85
2022-08-11T09:48:33.064Z,56.07
2022-08-11T09:49:33.078Z,60.42
2022-08-11T09:50:33.184Z,50.76
2022-08-11T09:51:32.979Z,51.24
2022-08-11T09:52:32.974Z,53.82
2022-08-11T09:53:37.687Z,50.60
2022-08-11T09:54:33.974Z,52.53
2022-08-11T09:55:33.122Z,54.95
2022-08-11T09:56:32.920Z,52.05
2022-08-11T09:57:33.104Z,53.33
2022-08-11T09:58:41.983Z,54.14
2022-08-11T09:59:33.904Z,54.79
2022-08-11T10:00:33.445Z,54.79
2022-08-11T10:01:33.061Z,54.62
2022-08-11T10:02:32.881Z,50.60
2022-08-11T10:03:32.938Z,53.50
2022-08-11T10:04:32.841Z,53.82
2022-08-11T10:05:32.880Z,51.24
2022-08-11T10:06:34.384Z,52.69
2022-08-11T10:07:32.902Z,53.17
2022-08-11T10:08:32.835Z,50.43
2022-08-11T10:09:32.816Z,52.69
2022-08-11T10:10:32.832Z,51.72
2022-08-11T10:11:32.857Z,52.05
2022-08-11T10:12:32.773Z,51.08
2022-08-11T10:14:30.573Z,52.85
2022-08-11T10:14:35.176Z,53.50
2022-08-11T10:15:33.818Z,51.08
2022-08-11T10:16:32.761Z,51.72
2022-08-11T10:17:32.741Z,51.72
2022-08-11T10:18:32.747Z,54.79
2022-08-11T10:19:32.742Z,52.85
2022-08-11T10:20:32.747Z,54.79
2022-08-11T10:21:32.731Z,53.50
2022-08-11T10:22:32.918Z,54.30
2022-08-11T10:23:32.729Z,54.30
2022-08-11T10:24:32.669Z,56.07
2022-08-11T10:25:32.767Z,53.82
2022-08-11T10:26:32.661Z,53.98
2022-08-11T10:28:09.022Z,54.79
2022-08-11T10:28:49.706Z,50.92
2022-08-11T10:29:36.795Z,57.20
2022-08-11T10:30:33.126Z,54.30
2022-08-11T10:31:45.113Z,52.05
2022-08-11T10:32:42.761Z,48.82
2022-08-11T10:33:37.902Z,51.88
2022-08-11T10:34:33.562Z,49.15
2022-08-11T10:35:32.954Z,50.92
2022-08-11T10:36:32.619Z,52.37
2022-08-11T10:38:06.656Z,51.40
2022-08-11T10:38:33.651Z,55.43
2022-08-11T10:39:32.706Z,52.37
2022-08-11T10:40:32.523Z,51.40
2022-08-11T10:41:32.795Z,53.82
2022-08-11T10:43:05.135Z,53.50
2022-08-11T10:44:01.534Z,52.53
2022-08-11T10:44:34.998Z,52.05
2022-08-11T10:45:34.144Z,53.66
2022-08-11T10:46:32.491Z,52.85
2022-08-11T10:47:32.528Z,53.17
2022-08-11T10:48:32.501Z,52.85
2022-08-11T10:49:32.441Z,51.56
2022-08-11T10:50:32.482Z,52.37
2022-08-11T10:51:51.876Z,52.53
2022-08-11T10:52:35.874Z,50.76
2022-08-11T10:58:05.612Z,48.82
2022-08-11T10:59:04.842Z,52.37
2022-08-11T11:00:04.731Z,52.69
2022-08-11T11:01:05.898Z,49.95
2022-08-11T11:02:05.764Z,50.92
2022-08-11T11:03:23.395Z,50.43
2022-08-11T11:04:07.208Z,52.21
2022-08-11T11:05:05.839Z,55.27
2022-08-11T11:06:13.019Z,49.31
2022-08-11T11:13:04.673Z,52.21
2022-08-11T11:14:03.923Z,53.01
2022-08-11T11:15:06.859Z,51.72
2022-08-11T11:16:04.039Z,52.37
2022-08-11T11:17:04.601Z,52.53
2022-08-11T11:18:03.930Z,50.76
2022-08-11T11:19:36.456Z,48.82
2022-08-11T11:20:04.193Z,50.43
2022-08-11T11:21:04.121Z,55.11
2022-08-11T11:22:03.895Z,52.85
2022-08-11T11:23:03.858Z,53.01
2022-08-11T11:24:03.886Z,53.17
2022-08-11T11:25:03.852Z,51.24
2022-08-11T11:26:03.773Z,52.69
2022-08-11T11:27:03.816Z,53.82
2022-08-11T11:28:03.796Z,53.01
2022-08-11T11:29:03.796Z,53.66
2022-08-11T11:30:03.848Z,52.21
2022-08-11T11:31:04.118Z,54.30
2022-08-11T11:35:19.921Z,51.08
2022-08-11T11:36:20.035Z,48.34
2022-08-11T11:37:19.898Z,54.79
2022-08-11T11:38:19.894Z,53.66
2022-08-11T11:39:21.112Z,51.40
2022-08-11T11:40:21.187Z,50.60
2022-08-11T11:41:21.151Z,53.17
2022-08-11T11:42:21.245Z,49.63
2022-08-11T11:43:21.215Z,53.33
2022-08-11T11:44:20.956Z,51.40
2022-08-11T11:45:23.794Z,52.53
2022-08-11T11:46:54.251Z,66.55
2022-08-11T11:47:21.730Z,53.01
2022-08-11T11:48:22.326Z,50.43
2022-08-11T11:50:20.971Z,52.21
2022-08-11T11:51:20.959Z,54.30
2022-08-11T11:52:20.977Z,51.56
2022-08-11T11:53:20.919Z,54.30
2022-08-11T11:54:20.892Z,50.76
2022-08-11T11:56:20.865Z,50.92
2022-08-11T11:57:21.167Z,51.40
2022-08-11T11:58:22.136Z,50.43
2022-08-11T11:59:21.973Z,52.53
2022-08-11T12:00:20.968Z,55.27
2022-08-11T12:01:20.970Z,56.88
2022-08-11T12:02:20.814Z,52.85
2022-08-11T12:03:20.936Z,53.66
2022-08-11T12:04:21.628Z,50.27
2022-08-11T12:05:20.845Z,51.40
2022-08-11T12:06:20.750Z,54.95
2022-08-11T12:07:20.822Z,48.98
2022-08-11T12:08:23.443Z,50.43
2022-08-11T12:09:21.797Z,53.01
2022-08-11T12:10:20.758Z,50.60
2022-08-11T12:11:20.714Z,51.40
2022-08-11T12:12:20.746Z,52.37
2022-08-11T12:13:20.761Z,50.92
2022-08-11T12:14:20.718Z,50.76
2022-08-11T12:16:03.592Z,53.66
2022-08-11T12:16:33.793Z,51.56
2022-08-11T12:17:21.689Z,50.27
2022-08-11T12:22:29.782Z,48.82
2022-08-11T12:23:31.976Z,51.24
2022-08-11T12:24:30.882Z,51.56
2022-08-11T12:25:30.917Z,53.82
2022-08-11T12:26:30.904Z,50.76
2022-08-11T12:27:32.070Z,53.50
2022-08-11T12:28:30.909Z,52.37
2022-08-11T12:29:31.401Z,54.14
2022-08-11T12:30:30.956Z,54.30
2022-08-11T12:34:44.638Z,51.08
2022-08-11T12:36:00.645Z,51.24
2022-08-11T12:40:16.700Z,51.72
2022-08-11T12:41:16.868Z,53.66
2022-08-11T12:42:02.698Z,51.56
2022-08-11T12:43:01.411Z,53.17
2022-08-11T12:44:01.340Z,53.50
2022-08-11T12:45:01.320Z,53.82
2022-08-11T12:46:01.672Z,51.56
2022-08-11T12:47:03.260Z,53.01
2022-08-11T12:48:59.793Z,52.53
2022-08-11T12:49:03.167Z,53.50
2022-08-11T12:50:01.974Z,54.46
2022-08-11T12:55:42.340Z,50.76
2022-08-11T12:56:43.211Z,53.82
2022-08-11T12:57:42.314Z,54.30
2022-08-11T12:58:42.162Z,50.11
2022-08-11T12:59:43.333Z,53.33
2022-08-11T13:00:43.384Z,49.95
2022-08-11T13:01:43.496Z,51.40
2022-08-11T13:02:44.587Z,48.66
2022-08-11T13:03:44.314Z,53.50
2022-08-11T13:04:43.208Z,48.66
2022-08-11T13:05:45.125Z,53.17
2022-08-11T13:06:43.256Z,49.15
2022-08-11T13:07:49.972Z,51.40
2022-08-11T13:08:44.268Z,47.37
2022-08-11T13:09:43.408Z,51.88
2022-08-11T13:10:43.381Z,57.85
2022-08-11T13:11:56.910Z,52.85
2022-08-11T13:12:44.277Z,54.14
2022-08-11T13:13:53.470Z,50.60
2022-08-11T13:14:44.239Z,53.82
2022-08-11T13:15:43.161Z,51.24
2022-08-11T13:16:43.176Z,49.95
2022-08-11T13:17:44.432Z,51.56
2022-08-11T13:18:43.335Z,49.15
2022-08-11T13:19:47.462Z,51.24
2022-08-11T13:20:44.140Z,50.60
2022-08-11T13:21:43.266Z,53.17
2022-08-11T13:22:43.042Z,51.56
2022-08-11T13:23:43.098Z,51.24
2022-08-11T13:24:44.231Z,53.33
2022-08-11T13:25:43.104Z,53.33
2022-08-11T13:26:47.119Z,50.11
2022-08-11T13:27:44.192Z,51.40
2022-08-11T13:28:43.246Z,51.72
2022-08-11T13:29:43.010Z,50.27
2022-08-11T13:30:46.795Z,53.01
2022-08-11T13:31:44.002Z,50.60
2022-08-11T13:32:43.059Z,50.76
2022-08-11T13:33:43.023Z,49.47
2022-08-11T13:34:42.979Z,49.31
2022-08-11T13:35:43.205Z,53.17
2022-08-11T13:36:42.963Z,51.72
2022-08-11T13:38:18.303Z,52.21
2022-08-11T13:38:49.505Z,49.63
2022-08-11T13:39:45.031Z,53.98
2022-08-11T13:40:55.201Z,52.53
2022-08-11T13:41:44.981Z,51.08
2022-08-11T13:42:42.880Z,49.63
2022-08-11T13:43:42.884Z,52.85
2022-08-11T13:44:43.946Z,49.15
2022-08-11T13:45:42.875Z,53.17
2022-08-11T13:50:56.546Z,51.24
2022-08-11T13:55:51.934Z,52.85
2022-08-11T13:56:42.547Z,51.56